CheckWX is a tool to help pilots better visualize weather data.  It is not intended as a substitute for an official pre-flight weather briefing.

01:01:35 UTC

KUDG METAR
Darlington County Airport
Darlington, South Carolina, USA
Current

43 mins ago

KUDG 200019Z AUTO 00000KT 10SM TS CLR 28/24 A3005 RMK AO2 LTG DSNT NE-S TSB08
Observed
Aug-20 @ 00:19 UTC
Visibility
10 SM
Flight Rules
VFR
Conditions
Thunderstorm
Cloud Levels
  • Clear skies
Temperature
28°C / 82°F
Dewpoint
24°C / 75°F
Heat Index
32°C / 89°F
Humidity
79%
Altimeter
30.05" Hg
Pressure
1017.62 hPa
Previous

1 hour ago

KUDG 192356Z AUTO 00000KT 10SM CLR 29/24 A3005 RMK AO2 LTG DSNT NE-S SLP174 P0001 60001 T02890244 10328 20289 53012
Observed
Aug-19 @ 23:56 UTC
Visibility
10 SM
Flight Rules
VFR
Cloud Levels
  • Clear skies
Temperature
29°C / 84°F
Dewpoint
24°C / 75°F
Heat Index
33°C / 92°F
Humidity
74%
Altimeter
30.05" Hg
Pressure
1017.62 hPa
Current Rain
0.01"
Previous

2 hours ago

KUDG 192256Z AUTO 22005KT 10SM CLR 31/24 A3003 RMK AO2 LTG DSNT N SLP169 T03110239
Observed
Aug-19 @ 22:56 UTC
Wind
  • 220° at 5 KTS
Visibility
10 SM
Flight Rules
VFR
Cloud Levels
  • Clear skies
Temperature
31°C / 88°F
Dewpoint
24°C / 75°F
Heat Index
37°C / 98°F
Humidity
66%
Altimeter
30.03" Hg
Pressure
1016.92 hPa